Crescent, Missouri
Current Conditions -  °F | °C
As of 3:54 PM on Friday 24 Oct 2014 (Local Time) from KSUS Reporting Station
Clear Clear  
Wind Chill: 74°   Ceiling: Unl
Heat Index: 74°   Visibility: 10mi
Dew Point: 49°   Wind: 7mph
Humidity: 41%   Direction: 180°S
Pressure: 30.01"   Gusts: NA
Location:  38.5081°N, 90.6523°W
Report Text: KSUS 242054Z 18006KT 10SM CLR 23/09 A3001 RMK AO2 SLP159 T02330094 56022
Loading
Personal Weather Stations






























Interactive Weather Map New forecast layout! Learn more

10-Day Weather Forecast

Advertisements
Track Severe Weather on mobile